createdAt,value
2023-04-01T00:00:35.889Z,27.80
2023-04-01T00:01:35.904Z,27.80
2023-04-01T00:02:36.009Z,27.78
2023-04-01T00:03:36.075Z,27.77
2023-04-01T00:04:36.219Z,27.76
2023-04-01T00:05:36.094Z,27.73
2023-04-01T00:06:36.121Z,27.73
2023-04-01T00:07:36.169Z,27.71
2023-04-01T00:08:36.175Z,27.70
2023-04-01T00:09:36.213Z,27.68
2023-04-01T00:10:36.248Z,27.66
2023-04-01T00:11:36.331Z,27.66
2023-04-01T00:12:36.393Z,27.64
2023-04-01T00:13:36.407Z,27.62
2023-04-01T00:14:36.467Z,27.63
2023-04-01T00:15:36.509Z,27.61
2023-04-01T00:16:36.579Z,27.58
2023-04-01T00:17:36.623Z,27.56
2023-04-01T00:18:36.624Z,27.54
2023-04-01T00:19:36.652Z,27.54
2023-04-01T00:20:36.684Z,27.53
2023-04-01T00:21:36.789Z,27.52
2023-04-01T00:22:36.792Z,27.48
2023-04-01T00:23:36.822Z,27.48
2023-04-01T00:24:36.861Z,27.46
2023-04-01T00:25:36.895Z,27.46
2023-04-01T00:26:36.964Z,27.48
2023-04-01T00:27:36.993Z,27.46
2023-04-01T00:28:37.075Z,27.43
2023-04-01T00:29:37.084Z,27.40
2023-04-01T00:30:37.108Z,27.42
2023-04-01T00:31:37.206Z,27.40
2023-04-01T00:32:37.221Z,27.42
2023-04-01T00:33:37.201Z,27.39
2023-04-01T00:34:37.232Z,27.38
2023-04-01T00:35:37.251Z,27.37
2023-04-01T00:36:37.329Z,27.37
2023-04-01T00:37:37.299Z,27.36
2023-04-01T00:38:37.334Z,27.35
2023-04-01T00:39:37.376Z,27.37
2023-04-01T00:40:37.407Z,27.37
2023-04-01T00:41:37.455Z,27.34
2023-04-01T00:42:37.518Z,27.35
2023-04-01T00:43:37.556Z,27.33
2023-04-01T00:44:37.617Z,27.32
2023-04-01T00:45:37.703Z,27.32
2023-04-01T00:46:37.749Z,27.31
2023-04-01T00:47:37.785Z,27.33
2023-04-01T00:48:37.780Z,27.33
2023-04-01T00:49:37.837Z,27.34
2023-04-01T00:50:37.851Z,27.31
2023-04-01T00:51:37.902Z,27.32
2023-04-01T00:52:37.964Z,27.28
2023-04-01T00:53:38.002Z,27.31
2023-04-01T00:54:38.047Z,27.29
2023-04-01T00:55:38.094Z,27.32
2023-04-01T00:56:38.227Z,27.30
2023-04-01T00:57:38.202Z,27.32
2023-04-01T00:58:38.256Z,27.30
2023-04-01T00:59:38.336Z,27.31
2023-04-01T01:00:38.421Z,27.31
2023-04-01T01:01:38.424Z,27.31
2023-04-01T01:02:38.586Z,27.31
2023-04-01T01:03:38.501Z,27.30
2023-04-01T01:04:38.529Z,27.31
2023-04-01T01:05:48.508Z,27.32
2023-04-01T01:06:39.603Z,27.30
2023-04-01T01:07:38.558Z,27.30
2023-04-01T01:08:38.557Z,27.30
2023-04-01T01:09:38.549Z,27.30
2023-04-01T01:10:38.604Z,27.29
2023-04-01T01:11:43.511Z,27.28
2023-04-01T01:12:39.551Z,27.29
2023-04-01T01:13:38.563Z,27.30
2023-04-01T01:14:38.541Z,27.30
2023-04-01T01:15:38.501Z,27.28
2023-04-01T01:16:38.527Z,27.30
2023-04-01T01:17:38.503Z,27.29
2023-04-01T01:18:38.513Z,27.30
2023-04-01T01:19:38.483Z,27.30
2023-04-01T01:20:38.475Z,27.29
2023-04-01T01:21:38.483Z,27.28
2023-04-01T01:22:38.462Z,27.29
2023-04-01T01:23:38.516Z,27.31
2023-04-01T01:24:38.547Z,27.30
2023-04-01T01:25:38.568Z,27.30
2023-04-01T01:26:38.644Z,27.27
2023-04-01T01:27:38.705Z,27.30
2023-04-01T01:28:38.734Z,27.29
2023-04-01T01:29:38.806Z,27.28
2023-04-01T01:30:38.893Z,27.30
2023-04-01T01:31:38.908Z,27.26
2023-04-01T01:32:38.953Z,27.28
2023-04-01T01:33:38.962Z,27.27
2023-04-01T01:34:39.027Z,27.28
2023-04-01T01:35:39.093Z,27.28
2023-04-01T01:36:39.134Z,27.28
2023-04-01T01:37:39.175Z,27.27
2023-04-01T01:38:39.165Z,27.27
2023-04-01T01:39:39.200Z,27.27
2023-04-01T01:40:39.226Z,27.26
2023-04-01T01:41:39.286Z,27.26
2023-04-01T01:42:39.336Z,27.25
2023-04-01T01:43:39.420Z,27.26
2023-04-01T01:44:39.466Z,27.26
2023-04-01T01:45:39.477Z,27.25
2023-04-01T01:46:39.544Z,27.24
2023-04-01T01:47:39.584Z,27.24
2023-04-01T01:48:39.611Z,27.26
2023-04-01T01:49:39.660Z,27.25
2023-04-01T01:50:39.726Z,27.21
2023-04-01T01:51:39.760Z,27.23
2023-04-01T01:52:39.803Z,27.25
2023-04-01T01:53:39.866Z,27.22
2023-04-01T01:54:39.909Z,27.20
2023-04-01T01:55:39.964Z,27.23
2023-04-01T01:56:40.017Z,27.22
2023-04-01T01:57:40.055Z,27.23
2023-04-01T01:58:40.084Z,27.22
2023-04-01T01:59:40.156Z,27.20
2023-04-01T02:00:40.179Z,27.22
2023-04-01T02:01:40.266Z,27.20
2023-04-01T02:02:40.339Z,27.18
2023-04-01T02:03:40.372Z,27.21
2023-04-01T02:04:40.577Z,27.21
2023-04-01T02:05:40.534Z,27.17
2023-04-01T02:06:40.556Z,27.20
2023-04-01T02:07:40.592Z,27.18
2023-04-01T02:08:40.648Z,27.18
2023-04-01T02:09:40.691Z,27.19
2023-04-01T02:10:40.774Z,27.18
2023-04-01T02:11:40.786Z,27.18
2023-04-01T02:12:40.799Z,27.18
2023-04-01T02:13:40.840Z,27.17
2023-04-01T02:14:40.873Z,27.16
2023-04-01T02:15:40.933Z,27.17
2023-04-01T02:16:40.941Z,27.17
2023-04-01T02:17:41.013Z,27.14
2023-04-01T02:18:40.992Z,27.15
2023-04-01T02:19:41.038Z,27.14
2023-04-01T02:20:41.072Z,27.14
2023-04-01T02:21:41.131Z,27.16
2023-04-01T02:22:41.165Z,27.13
2023-04-01T02:23:41.214Z,27.12
2023-04-01T02:24:41.220Z,27.13
2023-04-01T02:25:41.279Z,27.12
2023-04-01T02:26:41.383Z,27.12
2023-04-01T02:27:41.366Z,27.11
2023-04-01T02:28:41.419Z,27.12
2023-04-01T02:29:41.470Z,27.12
2023-04-01T02:30:41.525Z,27.11
2023-04-01T02:31:41.593Z,27.11
2023-04-01T02:32:41.623Z,27.11
2023-04-01T02:33:41.608Z,27.11
2023-04-01T02:34:41.619Z,27.10
2023-04-01T02:35:41.680Z,27.10
2023-04-01T02:36:41.730Z,27.09
2023-04-01T02:37:41.737Z,27.09
2023-04-01T02:38:41.809Z,27.09
2023-04-01T02:39:41.841Z,27.10
2023-04-01T02:40:41.880Z,27.10
2023-04-01T02:41:41.928Z,27.08
2023-04-01T02:42:41.977Z,27.09
2023-04-01T02:43:42.025Z,27.10
2023-04-01T02:44:42.088Z,27.07
2023-04-01T02:45:42.145Z,27.04
2023-04-01T02:46:42.268Z,27.07
2023-04-01T02:47:42.330Z,27.06
2023-04-01T02:48:42.284Z,27.07
2023-04-01T02:49:42.360Z,27.05
2023-04-01T02:50:42.379Z,27.05
2023-04-01T02:51:42.433Z,27.07
2023-04-01T02:52:42.514Z,27.04
2023-04-01T02:53:42.546Z,27.05
2023-04-01T02:54:42.581Z,27.05
2023-04-01T02:55:42.642Z,27.02
2023-04-01T02:56:42.692Z,27.01
2023-04-01T02:57:42.742Z,27.01
2023-04-01T02:58:42.804Z,27.02
2023-04-01T02:59:42.854Z,27.01
2023-04-01T03:00:42.973Z,27.01
2023-04-01T03:01:42.966Z,27.00
2023-04-01T03:02:43.097Z,27.00
2023-04-01T03:03:43.078Z,26.99
2023-04-01T03:04:43.141Z,26.97
2023-04-01T03:05:43.188Z,26.97
2023-04-01T03:06:43.240Z,26.97
2023-04-01T03:07:43.251Z,26.96
2023-04-01T03:08:43.291Z,26.97
2023-04-01T03:09:43.351Z,26.94
2023-04-01T03:10:43.400Z,26.94
2023-04-01T03:11:43.465Z,26.97
2023-04-01T03:12:43.489Z,26.96
2023-04-01T03:13:43.548Z,26.95
2023-04-01T03:14:43.584Z,26.97
2023-04-01T03:15:43.652Z,26.94
2023-04-01T03:16:43.699Z,26.95
2023-04-01T03:17:43.795Z,26.94
2023-04-01T03:18:43.771Z,26.94
2023-04-01T03:19:43.831Z,26.95
2023-04-01T03:20:43.877Z,26.93
2023-04-01T03:21:43.951Z,26.96
2023-04-01T03:22:43.939Z,26.93
2023-04-01T03:23:43.946Z,26.92
2023-04-01T03:24:44.007Z,26.93
2023-04-01T03:25:44.065Z,26.91
2023-04-01T03:26:44.127Z,26.90
2023-04-01T03:27:44.184Z,26.90
2023-04-01T03:28:44.226Z,26.93
2023-04-01T03:29:44.767Z,26.90
2023-04-01T03:30:44.355Z,26.91
2023-04-01T03:31:44.361Z,26.89
2023-04-01T03:32:44.439Z,26.89
2023-04-01T03:33:44.445Z,26.89
2023-04-01T03:34:44.485Z,26.89
2023-04-01T03:35:44.508Z,26.88
2023-04-01T03:36:44.588Z,26.89
2023-04-01T03:37:44.575Z,26.88
2023-04-01T03:38:44.599Z,26.90
2023-04-01T03:39:44.838Z,26.87
2023-04-01T03:40:44.715Z,26.89
2023-04-01T03:41:44.774Z,26.88
2023-04-01T03:42:44.923Z,26.89
2023-04-01T03:43:44.876Z,26.89
2023-04-01T03:44:44.875Z,26.86
2023-04-01T03:45:44.876Z,26.88
2023-04-01T03:46:45.013Z,26.86
2023-04-01T03:47:44.973Z,26.87
2023-04-01T03:48:44.897Z,26.86
2023-04-01T03:49:44.941Z,26.88
2023-04-01T03:50:44.988Z,26.86
2023-04-01T03:51:45.040Z,26.87
2023-04-01T03:52:45.084Z,26.88
2023-04-01T03:53:45.145Z,26.88
2023-04-01T03:54:45.187Z,26.85
2023-04-01T03:55:45.234Z,26.87
2023-04-01T03:56:45.428Z,26.87
2023-04-01T03:57:45.348Z,26.86
2023-04-01T03:58:45.405Z,26.88
2023-04-01T03:59:45.454Z,26.87
2023-04-01T04:00:45.516Z,26.84
2023-04-01T04:01:45.578Z,26.87
2023-04-01T04:02:45.679Z,26.86
2023-04-01T04:03:45.777Z,26.84
2023-04-01T04:04:45.798Z,26.87
2023-04-01T04:05:45.782Z,26.84
2023-04-01T04:06:45.823Z,26.85
2023-04-01T04:07:45.887Z,26.85
2023-04-01T04:08:45.922Z,26.86
2023-04-01T04:09:45.982Z,26.85
2023-04-01T04:10:46.007Z,26.82
2023-04-01T04:11:46.079Z,26.85
2023-04-01T04:12:46.076Z,26.84
2023-04-01T04:13:46.127Z,26.82
2023-04-01T04:14:46.147Z,26.80
2023-04-01T04:15:46.210Z,26.83
2023-04-01T04:16:46.268Z,26.82
2023-04-01T04:17:46.356Z,26.83
2023-04-01T04:18:46.373Z,26.83
2023-04-01T04:19:46.458Z,26.80
2023-04-01T04:20:46.513Z,26.82
2023-04-01T04:21:46.556Z,26.83
2023-04-01T04:22:46.596Z,26.81
2023-04-01T04:23:46.610Z,26.81
2023-04-01T04:24:46.657Z,26.83
2023-04-01T04:25:46.701Z,26.80
2023-04-01T04:26:46.735Z,26.80
2023-04-01T04:27:46.724Z,26.82
2023-04-01T04:28:46.746Z,26.82
2023-04-01T04:29:46.785Z,26.80
2023-04-01T04:30:46.785Z,26.83
2023-04-01T04:31:46.827Z,26.81
2023-04-01T04:32:46.875Z,26.83
2023-04-01T04:33:46.888Z,26.83
2023-04-01T04:34:46.960Z,26.80
2023-04-01T04:35:46.971Z,26.81
2023-04-01T04:36:46.967Z,26.80
2023-04-01T04:37:46.983Z,26.80
2023-04-01T04:38:46.982Z,26.80
2023-04-01T04:39:47.015Z,26.81
2023-04-01T04:40:47.037Z,26.79
2023-04-01T04:41:47.043Z,26.82
2023-04-01T04:42:47.056Z,26.81
2023-04-01T04:43:47.090Z,26.81
2023-04-01T04:44:47.139Z,26.83
2023-04-01T04:45:47.148Z,26.81
2023-04-01T04:46:47.239Z,26.79
2023-04-01T04:47:47.246Z,26.80
2023-04-01T04:48:47.300Z,26.82
2023-04-01T04:49:47.263Z,26.79
2023-04-01T04:50:47.298Z,26.80
2023-04-01T04:51:47.314Z,26.79
2023-04-01T04:52:47.289Z,26.77
2023-04-01T04:53:47.308Z,26.78
2023-04-01T04:54:47.362Z,26.79
2023-04-01T04:55:47.401Z,26.79
2023-04-01T04:56:47.453Z,26.79
2023-04-01T04:57:47.478Z,26.79
2023-04-01T04:58:47.536Z,26.78
2023-04-01T04:59:47.561Z,26.79
2023-04-01T05:00:47.603Z,26.78
2023-04-01T05:01:47.808Z,26.79
2023-04-01T05:02:47.805Z,26.78
2023-04-01T05:03:47.878Z,26.80
2023-04-01T05:04:47.795Z,26.79
2023-04-01T05:05:47.841Z,26.77
2023-04-01T05:06:47.889Z,26.77
2023-04-01T05:07:47.986Z,26.77
2023-04-01T05:08:47.980Z,26.76
2023-04-01T05:09:48.044Z,26.76
2023-04-01T05:10:48.094Z,26.76
2023-04-01T05:11:48.138Z,26.76
2023-04-01T05:12:48.174Z,26.77
2023-04-01T05:13:48.223Z,26.76
2023-04-01T05:14:48.277Z,26.75
2023-04-01T05:15:48.347Z,26.76
2023-04-01T05:16:48.426Z,26.76
2023-04-01T05:17:48.450Z,26.75
2023-04-01T05:18:48.609Z,26.78
2023-04-01T05:19:48.548Z,26.76
2023-04-01T05:20:48.614Z,26.73
2023-04-01T05:21:48.670Z,26.74
2023-04-01T05:22:48.704Z,26.74
2023-04-01T05:23:48.741Z,26.73
2023-04-01T05:24:48.849Z,26.73
2023-04-01T05:25:48.853Z,26.72
2023-04-01T05:26:48.879Z,26.71
2023-04-01T05:27:48.940Z,26.72
2023-04-01T05:28:48.993Z,26.68
2023-04-01T05:29:49.026Z,26.70
2023-04-01T05:30:49.089Z,26.68
2023-04-01T05:31:49.092Z,26.67
2023-04-01T05:32:49.202Z,26.67
2023-04-01T05:33:49.177Z,26.64
2023-04-01T05:34:49.223Z,26.63
2023-04-01T05:35:49.310Z,26.62
2023-04-01T05:36:49.305Z,26.60
2023-04-01T05:37:49.337Z,26.62
2023-04-01T05:38:49.399Z,26.61
2023-04-01T05:39:49.434Z,26.59
2023-04-01T05:40:49.485Z,26.56
2023-04-01T05:41:49.509Z,26.56
2023-04-01T05:42:49.565Z,26.54
2023-04-01T05:43:49.631Z,26.54
2023-04-01T05:44:49.702Z,26.56
2023-04-01T05:45:49.725Z,26.54
2023-04-01T05:46:49.757Z,26.54
2023-04-01T05:47:49.847Z,26.55
2023-04-01T05:48:49.876Z,26.52
2023-04-01T05:49:49.933Z,26.52
2023-04-01T05:50:50.025Z,26.51
2023-04-01T05:51:50.142Z,26.51
2023-04-01T05:52:50.186Z,26.48
2023-04-01T05:53:50.177Z,26.44
2023-04-01T05:54:50.232Z,26.44
2023-04-01T05:55:50.302Z,26.42
2023-04-01T05:56:50.394Z,26.41
2023-04-01T05:57:50.416Z,26.40
2023-04-01T05:58:50.433Z,26.38
2023-04-01T05:59:50.455Z,26.40
2023-04-01T06:01:02.291Z,26.41
2023-04-01T06:01:51.498Z,26.41
2023-04-01T06:02:50.577Z,26.39
2023-04-01T06:03:50.655Z,26.39
2023-04-01T06:04:50.519Z,26.39
2023-04-01T06:05:50.443Z,26.36
2023-04-01T06:06:50.418Z,26.38
2023-04-01T06:07:50.422Z,26.36
2023-04-01T06:08:50.416Z,26.37
2023-04-01T06:09:50.400Z,26.37
2023-04-01T06:10:50.407Z,26.34
2023-04-01T06:11:50.394Z,26.36
2023-04-01T06:12:50.385Z,26.37
2023-04-01T06:13:50.386Z,26.36
2023-04-01T06:14:50.396Z,26.37
2023-04-01T06:15:50.423Z,26.36
2023-04-01T06:16:50.381Z,26.34
2023-04-01T06:17:50.382Z,26.33
2023-04-01T06:18:50.356Z,26.34
2023-04-01T06:19:50.422Z,26.29
2023-04-01T06:20:50.435Z,26.25
2023-04-01T06:21:50.499Z,26.23
2023-04-01T06:22:50.534Z,26.22
2023-04-01T06:23:50.518Z,26.19
2023-04-01T06:24:50.553Z,26.17
2023-04-01T06:25:50.577Z,26.17
2023-04-01T06:26:50.608Z,26.18
2023-04-01T06:27:50.641Z,26.16
2023-04-01T06:28:50.628Z,26.13
2023-04-01T06:29:50.630Z,26.07
2023-04-01T06:30:50.638Z,26.01
2023-04-01T06:31:50.734Z,25.92
2023-04-01T06:32:50.762Z,25.61
2023-04-01T06:33:50.714Z,25.57
2023-04-01T06:34:50.797Z,25.07
2023-04-01T06:35:50.922Z,24.85
2023-04-01T06:36:50.832Z,24.94
2023-04-01T06:37:50.862Z,25.04
2023-04-01T06:38:50.936Z,25.13
2023-04-01T06:39:50.954Z,25.16
2023-04-01T06:40:51.012Z,25.23
2023-04-01T06:41:51.066Z,25.24
2023-04-01T06:42:51.109Z,25.25
2023-04-01T06:43:51.154Z,25.23
2023-04-01T06:44:51.244Z,25.21
2023-04-01T06:45:51.299Z,25.20
2023-04-01T06:46:51.314Z,25.19
2023-04-01T06:47:51.434Z,25.21
2023-04-01T06:48:51.408Z,25.22
2023-04-01T06:49:51.450Z,25.22
2023-04-01T06:50:51.496Z,25.22
2023-04-01T06:51:51.546Z,25.17
2023-04-01T06:52:51.580Z,24.94
2023-04-01T06:53:51.593Z,24.63
2023-04-01T06:54:51.661Z,24.17
2023-04-01T06:55:51.682Z,23.90
2023-04-01T06:56:51.772Z,23.90
2023-04-01T06:57:51.795Z,23.90
2023-04-01T06:58:51.819Z,23.99
2023-04-01T06:59:51.888Z,24.08
2023-04-01T07:00:52.129Z,23.61
2023-04-01T07:01:51.973Z,22.91
2023-04-01T07:02:52.030Z,22.52
2023-04-01T07:03:52.004Z,22.58
2023-04-01T07:04:52.091Z,22.10
2023-04-01T07:05:52.080Z,21.53
2023-04-01T07:06:52.242Z,21.06
2023-04-01T07:07:52.158Z,20.84
2023-04-01T07:08:52.172Z,21.34
2023-04-01T07:09:52.203Z,21.68
2023-04-01T07:10:52.253Z,21.83
2023-04-01T07:11:52.315Z,21.98
2023-04-01T07:12:52.368Z,22.29
2023-04-01T07:13:52.428Z,22.37
2023-04-01T07:14:52.423Z,22.51
2023-04-01T07:15:52.427Z,22.57
2023-04-01T07:16:52.473Z,22.73
2023-04-01T07:17:52.530Z,22.89
2023-04-01T07:18:52.510Z,22.95
2023-04-01T07:19:52.559Z,23.00
2023-04-01T07:20:52.607Z,23.09
2023-04-01T07:21:52.614Z,23.21
2023-04-01T07:22:52.635Z,23.19
2023-04-01T07:23:52.670Z,23.37
2023-04-01T07:24:52.671Z,23.48
2023-04-01T07:25:52.678Z,23.54
2023-04-01T07:26:52.675Z,23.64
2023-04-01T07:27:52.713Z,23.77
2023-04-01T07:28:52.723Z,23.85
2023-04-01T07:29:52.774Z,23.94
2023-04-01T07:30:52.816Z,23.99
2023-04-01T07:31:52.875Z,24.00
2023-04-01T07:32:52.934Z,23.97
2023-04-01T07:33:52.951Z,24.01
2023-04-01T07:34:52.990Z,24.07
2023-04-01T07:35:53.035Z,24.15
2023-04-01T07:36:53.067Z,24.21
2023-04-01T07:37:53.076Z,24.27
2023-04-01T07:38:53.121Z,23.93
2023-04-01T07:39:53.084Z,23.91
2023-04-01T07:40:53.090Z,23.99
2023-04-01T07:41:53.088Z,24.08
2023-04-01T07:42:53.070Z,24.16
2023-04-01T07:43:53.070Z,24.24
2023-04-01T07:44:53.106Z,24.29
2023-04-01T07:45:53.167Z,24.31
2023-04-01T07:46:53.102Z,24.35
2023-04-01T07:47:53.197Z,24.37
2023-04-01T07:48:53.220Z,24.22
2023-04-01T07:49:53.267Z,24.15
2023-04-01T07:50:53.329Z,23.99
2023-04-01T07:51:53.378Z,23.95
2023-04-01T07:52:53.413Z,23.71
2023-04-01T07:53:53.430Z,23.03
2023-04-01T07:54:53.485Z,22.35
2023-04-01T07:55:53.515Z,22.27
2023-04-01T07:56:53.572Z,21.79
2023-04-01T07:57:53.537Z,21.20
2023-04-01T07:58:53.613Z,20.48
2023-04-01T07:59:53.619Z,19.82
2023-04-01T08:00:53.624Z,19.79
2023-04-01T08:01:53.658Z,20.30
2023-04-01T08:02:53.815Z,20.55
2023-04-01T08:03:53.900Z,19.91
2023-04-01T08:04:53.762Z,19.67
2023-04-01T08:05:53.775Z,19.25
2023-04-01T08:06:53.835Z,19.24
2023-04-01T08:07:53.844Z,18.90
2023-04-01T08:08:53.858Z,18.70
2023-04-01T08:09:53.902Z,18.91
2023-04-01T08:10:53.917Z,18.89
2023-04-01T08:11:53.959Z,19.10
2023-04-01T08:12:53.994Z,19.60
2023-04-01T08:13:54.044Z,19.51
2023-04-01T08:14:54.093Z,19.89
2023-04-01T08:15:54.201Z,19.93
2023-04-01T08:16:54.653Z,20.05
2023-04-01T08:17:54.248Z,19.93
2023-04-01T08:18:54.261Z,20.18
2023-04-01T08:19:54.276Z,19.87
2023-04-01T08:20:54.314Z,19.55
2023-04-01T08:21:54.299Z,19.26
2023-04-01T08:22:54.368Z,19.06
2023-04-01T08:23:54.434Z,19.16
2023-04-01T08:24:54.499Z,19.14
2023-04-01T08:25:54.541Z,19.21
2023-04-01T08:26:54.567Z,19.33
2023-04-01T08:27:54.611Z,19.35
2023-04-01T08:28:54.688Z,19.74
2023-04-01T08:29:54.680Z,19.93
2023-04-01T08:30:54.747Z,19.91
2023-04-01T08:31:54.759Z,19.91
2023-04-01T08:32:54.819Z,20.03
2023-04-01T08:33:54.861Z,20.21
2023-04-01T08:34:54.858Z,20.53
2023-04-01T08:35:54.911Z,20.83
2023-04-01T08:36:54.936Z,21.07
2023-04-01T08:37:54.902Z,21.31
2023-04-01T08:38:54.944Z,21.54
2023-04-01T08:39:54.980Z,21.61
2023-04-01T08:40:55.029Z,21.78
2023-04-01T08:41:55.047Z,21.88
2023-04-01T08:42:55.104Z,22.05
2023-04-01T08:43:55.147Z,22.16
2023-04-01T08:44:55.206Z,22.26
2023-04-01T08:45:55.259Z,22.29
2023-04-01T08:46:55.229Z,22.37
2023-04-01T08:47:55.265Z,22.44
2023-04-01T08:48:55.247Z,22.45
2023-04-01T08:49:55.240Z,22.45
2023-04-01T08:50:55.271Z,22.48
2023-04-01T08:51:55.330Z,22.50
2023-04-01T08:52:55.399Z,22.57
2023-04-01T08:53:55.400Z,22.56
2023-04-01T08:54:55.439Z,22.55
2023-04-01T08:55:55.485Z,22.57
2023-04-01T08:56:55.524Z,22.56
2023-04-01T08:57:56.778Z,22.51
2023-04-01T08:58:55.541Z,22.58
2023-04-01T08:59:55.542Z,22.58
2023-04-01T09:00:55.524Z,22.55
2023-04-01T09:01:55.593Z,22.56
2023-04-01T09:02:55.596Z,22.57
2023-04-01T09:03:55.686Z,22.57
2023-04-01T09:04:55.611Z,22.56
2023-04-01T09:05:55.624Z,22.53
2023-04-01T09:06:55.644Z,22.54
2023-04-01T09:07:55.669Z,22.53
2023-04-01T09:08:55.690Z,22.53
2023-04-01T09:09:55.698Z,22.50
2023-04-01T09:10:55.726Z,22.50
2023-04-01T09:11:55.779Z,22.45
2023-04-01T09:12:55.821Z,22.39
2023-04-01T09:13:55.853Z,22.32
2023-04-01T09:14:55.875Z,22.23
2023-04-01T09:15:55.932Z,22.18
2023-04-01T09:16:55.882Z,22.07
2023-04-01T09:17:56.013Z,21.96
2023-04-01T09:18:55.955Z,21.87
2023-04-01T09:19:56.024Z,21.78
2023-04-01T09:20:56.065Z,21.64
2023-04-01T09:21:56.090Z,21.49
2023-04-01T09:22:56.092Z,21.34
2023-04-01T09:23:56.132Z,21.26
2023-04-01T09:24:56.186Z,21.39
2023-04-01T09:25:56.187Z,21.47
2023-04-01T09:26:56.284Z,21.52
2023-04-01T09:27:56.251Z,21.43
2023-04-01T09:28:56.298Z,21.48
2023-04-01T09:29:56.330Z,21.49
2023-04-01T09:30:56.433Z,21.56
2023-04-01T09:31:56.442Z,21.66
2023-04-01T09:32:56.515Z,21.76
2023-04-01T09:33:56.476Z,21.78
2023-04-01T09:34:56.553Z,21.86
2023-04-01T09:35:56.622Z,21.96
2023-04-01T09:36:56.649Z,22.01
2023-04-01T09:37:56.697Z,22.03
2023-04-01T09:38:56.761Z,22.03
2023-04-01T09:39:56.821Z,22.08
2023-04-01T09:40:56.854Z,22.03
2023-04-01T09:41:56.876Z,22.07
2023-04-01T09:42:56.906Z,22.07
2023-04-01T09:43:56.931Z,22.07
2023-04-01T09:44:56.984Z,22.12
2023-04-01T09:45:56.990Z,22.14
2023-04-01T09:46:56.981Z,22.06
2023-04-01T09:47:57.094Z,21.99
2023-04-01T09:48:57.020Z,21.97
2023-04-01T09:49:57.061Z,22.03
2023-04-01T09:50:57.097Z,21.94
2023-04-01T09:51:57.153Z,21.92
2023-04-01T09:52:57.232Z,21.85
2023-04-01T09:53:57.270Z,21.88
2023-04-01T09:54:57.320Z,21.97
2023-04-01T09:55:57.376Z,22.00
2023-04-01T09:56:57.449Z,22.06
2023-04-01T09:57:57.431Z,22.12
2023-04-01T09:58:57.461Z,22.19
2023-04-01T09:59:57.504Z,22.18
2023-04-01T10:00:57.528Z,22.11
2023-04-01T10:01:57.674Z,21.98
2023-04-01T10:02:57.682Z,21.99
2023-04-01T10:03:57.706Z,21.86
2023-04-01T10:04:57.761Z,21.87
2023-04-01T10:05:57.887Z,21.84
2023-04-01T10:06:57.830Z,21.90
2023-04-01T10:07:57.873Z,21.85
2023-04-01T10:08:57.894Z,21.84
2023-04-01T10:09:57.918Z,21.80
2023-04-01T10:10:57.934Z,21.80
2023-04-01T10:11:57.998Z,21.75
2023-04-01T10:12:58.053Z,21.78
2023-04-01T10:13:58.069Z,21.68
2023-04-01T10:14:58.117Z,21.66
2023-04-01T10:15:58.168Z,21.63
2023-04-01T10:16:58.192Z,21.79
2023-04-01T10:17:58.283Z,21.93
2023-04-01T10:18:58.282Z,21.93
2023-04-01T10:19:58.340Z,21.83
2023-04-01T10:20:58.399Z,21.82
2023-04-01T10:21:58.500Z,21.93
2023-04-01T10:22:58.530Z,21.88
2023-04-01T10:23:58.538Z,21.81
2023-04-01T10:24:58.580Z,21.83
2023-04-01T10:25:58.624Z,21.77
2023-04-01T10:26:58.685Z,21.77
2023-04-01T10:27:58.739Z,21.74
2023-04-01T10:28:58.769Z,21.67
2023-04-01T10:29:58.789Z,21.73
2023-04-01T10:30:58.820Z,21.69
2023-04-01T10:31:58.927Z,21.56
2023-04-01T10:32:58.926Z,21.56
2023-04-01T10:33:58.925Z,21.56
2023-04-01T10:34:58.945Z,21.59
2023-04-01T10:35:59.012Z,21.53
2023-04-01T10:36:59.051Z,21.60
2023-04-01T10:37:59.081Z,21.54
2023-04-01T10:38:59.124Z,21.48
2023-04-01T10:39:59.171Z,21.50
2023-04-01T10:40:59.214Z,21.38
2023-04-01T10:41:59.248Z,21.54
2023-04-01T10:42:59.294Z,21.62
2023-04-01T10:43:59.340Z,21.61
2023-04-01T10:44:59.365Z,21.52
2023-04-01T10:45:59.483Z,21.61
2023-04-01T10:46:59.475Z,21.50
2023-04-01T10:47:59.514Z,21.45
2023-04-01T10:48:59.532Z,21.50
2023-04-01T10:49:59.548Z,21.48
2023-04-01T10:50:59.641Z,21.60
2023-04-01T10:51:59.665Z,21.60
2023-04-01T10:52:59.698Z,21.67
2023-04-01T10:53:59.764Z,21.63
2023-04-01T10:54:59.805Z,21.60
2023-04-01T10:55:59.853Z,21.60
2023-04-01T10:56:59.930Z,21.54
2023-04-01T10:57:59.929Z,21.57
2023-04-01T10:58:59.935Z,21.60
2023-04-01T10:59:59.966Z,21.54
2023-04-01T11:01:00.008Z,21.49
2023-04-01T11:02:09.943Z,21.39
2023-04-01T11:03:01.065Z,21.42
2023-04-01T11:04:00.009Z,21.46
2023-04-01T11:05:00.020Z,21.39
2023-04-01T11:05:59.984Z,21.31
2023-04-01T11:06:59.963Z,21.35
2023-04-01T11:08:05.931Z,21.34
2023-04-01T11:09:00.967Z,21.37
2023-04-01T11:09:59.954Z,21.27
2023-04-01T11:10:59.958Z,21.26
2023-04-01T11:11:59.941Z,21.24
2023-04-01T11:12:59.932Z,21.32
2023-04-01T11:13:59.961Z,21.35
2023-04-01T11:14:59.922Z,21.37
2023-04-01T11:15:59.944Z,21.35
2023-04-01T11:16:59.912Z,21.46
2023-04-01T11:17:59.945Z,21.53
2023-04-01T11:18:59.881Z,21.46
2023-04-01T11:19:59.889Z,21.49
2023-04-01T11:20:59.874Z,21.54
2023-04-01T11:21:59.869Z,21.58
2023-04-01T11:22:59.891Z,21.58
2023-04-01T11:24:05.203Z,21.68
2023-04-01T11:25:00.937Z,21.71
2023-04-01T11:25:59.921Z,21.79
2023-04-01T11:26:59.930Z,21.76
2023-04-01T11:27:59.915Z,21.74
2023-04-01T11:28:59.899Z,21.69
2023-04-01T11:30:00.769Z,21.64
2023-04-01T11:30:59.987Z,21.63
2023-04-01T11:31:59.887Z,21.69
2023-04-01T11:32:59.907Z,21.61
2023-04-01T11:33:59.849Z,21.58
2023-04-01T11:34:59.840Z,21.63
2023-04-01T11:35:59.844Z,21.61
2023-04-01T11:36:59.893Z,21.69
2023-04-01T11:37:59.850Z,21.71
2023-04-01T11:38:59.843Z,21.68
2023-04-01T11:39:59.882Z,21.68
2023-04-01T11:40:59.921Z,21.79
2023-04-01T11:41:59.946Z,21.69
2023-04-01T11:42:59.987Z,21.64
2023-04-01T11:44:00.103Z,21.68
2023-04-01T11:45:00.110Z,21.72
2023-04-01T11:46:00.132Z,21.71
2023-04-01T11:47:00.146Z,21.77
2023-04-01T11:48:00.266Z,21.80
2023-04-01T11:49:00.224Z,21.76
2023-04-01T11:50:00.274Z,21.73
2023-04-01T11:51:00.293Z,21.74
2023-04-01T11:52:00.348Z,21.71
2023-04-01T11:53:00.371Z,21.75
2023-04-01T11:54:00.450Z,21.76
2023-04-01T11:55:00.468Z,21.75
2023-04-01T11:56:00.501Z,21.78
2023-04-01T11:57:00.549Z,21.58
2023-04-01T11:58:00.583Z,21.79
2023-04-01T11:59:00.636Z,21.83
2023-04-01T12:00:00.689Z,21.91
2023-04-01T12:01:00.720Z,21.82
2023-04-01T12:02:00.753Z,21.81
2023-04-01T12:03:00.857Z,21.84
2023-04-01T12:04:00.998Z,21.78
2023-04-01T12:05:00.923Z,21.85
2023-04-01T12:06:00.959Z,21.84
2023-04-01T12:07:01.022Z,21.89
2023-04-01T12:08:01.113Z,21.90
2023-04-01T12:09:01.139Z,21.89
2023-04-01T12:10:01.181Z,21.90
2023-04-01T12:11:01.248Z,21.86
2023-04-01T12:12:01.277Z,21.92
2023-04-01T12:13:02.092Z,21.85
2023-04-01T12:14:01.316Z,21.92
2023-04-01T12:15:01.403Z,21.90
2023-04-01T12:16:01.473Z,21.91
2023-04-01T12:17:01.470Z,21.93
2023-04-01T12:18:01.512Z,21.91
2023-04-01T12:19:01.485Z,21.95
2023-04-01T12:20:01.515Z,21.92
2023-04-01T12:21:01.530Z,21.92
2023-04-01T12:22:01.597Z,22.04
2023-04-01T12:23:01.663Z,22.01
2023-04-01T12:24:01.686Z,22.03
2023-04-01T12:25:01.723Z,22.07
2023-04-01T12:26:01.767Z,22.06
2023-04-01T12:27:01.788Z,22.11
2023-04-01T12:28:01.841Z,22.14
2023-04-01T12:29:01.891Z,22.14
2023-04-01T12:30:01.917Z,22.17
2023-04-01T12:31:01.978Z,22.18
2023-04-01T12:32:02.087Z,22.18
2023-04-01T12:33:02.168Z,22.20
2023-04-01T12:34:02.074Z,22.19
2023-04-01T12:35:02.076Z,22.18
2023-04-01T12:36:02.196Z,22.20
2023-04-01T12:37:02.127Z,22.27
2023-04-01T12:38:02.164Z,22.25
2023-04-01T12:39:02.228Z,22.29
2023-04-01T12:40:02.248Z,22.31
2023-04-01T12:41:02.307Z,22.30
2023-04-01T12:42:02.369Z,22.35
2023-04-01T12:43:02.413Z,22.36
2023-04-01T12:44:02.478Z,22.39
2023-04-01T12:45:02.536Z,22.40
2023-04-01T12:46:02.639Z,22.40
2023-04-01T12:47:02.641Z,22.42
2023-04-01T12:48:02.717Z,22.42
2023-04-01T12:49:02.763Z,22.42
2023-04-01T12:50:02.847Z,22.42
2023-04-01T12:51:02.885Z,22.40
2023-04-01T12:52:02.932Z,22.47
2023-04-01T12:53:02.981Z,22.51